Observation data for Denver City on 06/19/2019      Previous  Date  Next       Current Mesonet Observations  Soil Data  Daily Summary Page  Observations in Plain Language
KDVS 190500Z 17008KT 21/14 A2998 RMK A01 T02130136  RH  064%=      5-min Rain = 0
KDVS 190505Z 17008KT 21/14 A2998 RMK A01 T02080138  RH  067%=      5-min Rain = 0
KDVS 190510Z 18008KT 21/14 A2998 RMK A01 T02060135  RH  066%=      5-min Rain = 0
KDVS 190515Z 19007KT 21/13 A2998 RMK A01 T02080130  RH  064%=      5-min Rain = 0
KDVS 190520Z 18005KT 21/13 A2998 RMK A01 T02100129  RH  062%=      5-min Rain = 0
KDVS 190525Z 17006KT 21/14 A2998 RMK A01 T02050135  RH  067%=      5-min Rain = 0
KDVS 190530Z 16005KT 20/13 A2998 RMK A01 T01980133  RH  069%=      5-min Rain = 0
KDVS 190535Z 16006KT 19/13 A2998 RMK A01 T01930131  RH  070%=      5-min Rain = 0
KDVS 190540Z 17005KT 19/12 A2997 RMK A01 T01940124  RH  066%=      5-min Rain = 0
KDVS 190545Z 16007KT 19/13 A2998 RMK A01 T01940125  RH  067%=      5-min Rain = 0
KDVS 190550Z 16006KT 19/13 A2997 RMK A01 T01920125  RH  067%=      5-min Rain = 0
KDVS 190555Z 15007KT 19/13 A2997 RMK A01 T01900128  RH  070%=      5-min Rain = 0
KDVS 190600Z 16008KT 19/13 A2997 RMK A01 T01870130  RH  072%=      5-min Rain = 0
KDVS 190605Z 16007KT 19/13 A2997 RMK A01 T01870128  RH  071%=      5-min Rain = 0
KDVS 190610Z 17007KT 19/13 A2996 RMK A01 T01860128  RH  072%=      5-min Rain = 0
KDVS 190615Z 17008KT 19/13 A2996 RMK A01 T01860127  RH  072%=      5-min Rain = 0
KDVS 190620Z 17008KT 19/13 A2996 RMK A01 T01860126  RH  071%=      5-min Rain = 0
KDVS 190625Z 16009KT 19/12 A2996 RMK A01 T01880124  RH  069%=      5-min Rain = 0
KDVS 190630Z 16008KT 19/12 A2996 RMK A01 T01890121  RH  067%=      5-min Rain = 0
KDVS 190635Z 15007KT 19/12 A2995 RMK A01 T01890119  RH  066%=      5-min Rain = 0
KDVS 190640Z 15007KT 19/12 A2995 RMK A01 T01880119  RH  066%=      5-min Rain = 0
KDVS 190645Z 15008KT 19/12 A2995 RMK A01 T01860119  RH  067%=      5-min Rain = 0
KDVS 190650Z 15008KT 18/12 A2995 RMK A01 T01840121  RH  069%=      5-min Rain = 0
KDVS 190655Z 15008KT 18/12 A2995 RMK A01 T01830121  RH  070%=      5-min Rain = 0
KDVS 190700Z 16009KT 18/12 A2995 RMK A01 T01830121  RH  070%=      5-min Rain = 0
KDVS 190705Z 15009KT 18/12 A2994 RMK A01 T01840120  RH  069%=      5-min Rain = 0
KDVS 190710Z 16009KT 19/12 A2994 RMK A01 T01850118  RH  068%=      5-min Rain = 0
KDVS 190715Z 16009KT 19/12 A2994 RMK A01 T01850118  RH  068%=      5-min Rain = 0
KDVS 190720Z 16007KT 18/12 A2993 RMK A01 T01840118  RH  068%=      5-min Rain = 0
KDVS 190725Z 16007KT 18/12 A2993 RMK A01 T01840118  RH  068%=      5-min Rain = 0
KDVS 190730Z 15007KT 18/12 A2993 RMK A01 T01830117  RH  068%=      5-min Rain = 0
KDVS 190735Z 15006KT 18/12 A2993 RMK A01 T01820118  RH  069%=      5-min Rain = 0
KDVS 190740Z 15005KT 18/12 A2993 RMK A01 T01790120  RH  071%=      5-min Rain = 0
KDVS 190745Z 14006KT 18/12 A2993 RMK A01 T01770123  RH  073%=      5-min Rain = 0
KDVS 190750Z 13006KT 17/13 A2993 RMK A01 T01730125  RH  076%=      5-min Rain = 0
KDVS 190755Z 13007KT 17/13 A2993 RMK A01 T01710126  RH  078%=      5-min Rain = 0
KDVS 190800Z 14007KT 17/13 A2993 RMK A01 T01690126  RH  078%=      5-min Rain = 0
KDVS 190805Z 15008KT 17/13 A2992 RMK A01 T01690126  RH  079%=      5-min Rain = 0
KDVS 190810Z 15008KT 17/13 A2992 RMK A01 T01690126  RH  079%=      5-min Rain = 0
KDVS 190815Z 15008KT 17/13 A2992 RMK A01 T01680127  RH  079%=      5-min Rain = 0
KDVS 190820Z 16007KT 17/13 A2992 RMK A01 T01690126  RH  079%=      5-min Rain = 0
KDVS 190825Z 16008KT 17/13 A2992 RMK A01 T01690126  RH  078%=      5-min Rain = 0
KDVS 190830Z 16007KT 17/13 A2991 RMK A01 T01700125  RH  078%=      5-min Rain = 0
KDVS 190835Z 16007KT 17/13 A2991 RMK A01 T01700125  RH  078%=      5-min Rain = 0
KDVS 190840Z 16006KT 17/13 A2991 RMK A01 T01690126  RH  079%=      5-min Rain = 0
KDVS 190845Z 17006KT 17/13 A2991 RMK A01 T01680127  RH  080%=      5-min Rain = 0
KDVS 190850Z 17007KT 17/13 A2991 RMK A01 T01670127  RH  080%=      5-min Rain = 0
KDVS 190855Z 17007KT 17/13 A2991 RMK A01 T01690128  RH  080%=      5-min Rain = 0
KDVS 190900Z 17007KT 17/13 A2991 RMK A01 T01710128  RH  079%=      5-min Rain = 0
KDVS 190905Z 17007KT 17/13 A299 RMK A01 T01720128  RH  078%=      5-min Rain = 0
KDVS 190910Z 17007KT 17/13 A299 RMK A01 T01720127  RH  078%=      5-min Rain = 0
KDVS 190915Z 18007KT 17/13 A299 RMK A01 T01710128  RH  079%=      5-min Rain = 0
KDVS 190920Z 18007KT 17/13 A299 RMK A01 T01710128  RH  079%=      5-min Rain = 0
KDVS 190925Z 18008KT 17/13 A299 RMK A01 T01710127  RH  078%=      5-min Rain = 0
KDVS 190930Z 18008KT 17/13 A299 RMK A01 T01710127  RH  079%=      5-min Rain = 0
KDVS 190935Z 18008KT 17/13 A299 RMK A01 T01690127  RH  079%=      5-min Rain = 0
KDVS 190940Z 18007KT 17/13 A299 RMK A01 T01690128  RH  079%=      5-min Rain = 0
KDVS 190945Z 18007KT 17/13 A299 RMK A01 T01680128  RH  080%=      5-min Rain = 0
KDVS 190950Z 18008KT 17/13 A2989 RMK A01 T01680127  RH  080%=      5-min Rain = 0
KDVS 190955Z 18008KT 17/13 A2989 RMK A01 T01670127  RH  080%=      5-min Rain = 0
KDVS 191000Z 18008KT 17/13 A2989 RMK A01 T01670127  RH  080%=      5-min Rain = 0
KDVS 191005Z 18008KT 17/13 A299 RMK A01 T01680127  RH  080%=      5-min Rain = 0
KDVS 191010Z 19008KT 17/13 A299 RMK A01 T01680127  RH  080%=      5-min Rain = 0
KDVS 191015Z 19009KT 17/13 A299 RMK A01 T01680127  RH  080%=      5-min Rain = 0
KDVS 191020Z 19008KT 17/13 A299 RMK A01 T01680127  RH  080%=      5-min Rain = 0
KDVS 191025Z 19007KT 17/13 A299 RMK A01 T01670127  RH  080%=      5-min Rain = 0
KDVS 191030Z 20006KT 17/13 A299 RMK A01 T01660128  RH  081%=      5-min Rain = 0
KDVS 191035Z 20006KT 17/13 A299 RMK A01 T01650128  RH  082%=      5-min Rain = 0
KDVS 191040Z 21006KT 16/13 A299 RMK A01 T01640128  RH  082%=      5-min Rain = 0
KDVS 191045Z 23005KT 17/13 A299 RMK A01 T01650128  RH  082%=      5-min Rain = 0
KDVS 191050Z 25005KT 17/13 A2991 RMK A01 T01650128  RH  082%=      5-min Rain = 0
KDVS 191055Z 33011KT 17/13 A2993 RMK A01 T01650130  RH  083%=      5-min Rain = 0
KDVS 191100Z 34006G13KT 16/13 A2993 RMK A01 T01630128  RH  083%=      5-min Rain = 0
KDVS 191105Z 33013G19KT 16/13 A2994 RMK A01 T01630128  RH  083%=      5-min Rain = 0
KDVS 191110Z 24008KT 17/13 A2992 RMK A01 T01650128  RH  082%=      5-min Rain = 0
KDVS 191115Z 24008KT 17/13 A2992 RMK A01 T01680128  RH  081%=      5-min Rain = 0
KDVS 191120Z 24008KT 17/13 A2992 RMK A01 T01720128  RH  079%=      5-min Rain = 0
KDVS 191125Z 24006KT 17/13 A2992 RMK A01 T01740128  RH  078%=      5-min Rain = 0
KDVS 191130Z 26005KT 17/13 A2992 RMK A01 T01720128  RH  078%=      5-min Rain = 0
KDVS 191135Z 32006KT 17/13 A2993 RMK A01 T01690128  RH  080%=      5-min Rain = 0
KDVS 191140Z 01006KT 16/13 A2994 RMK A01 T01630128  RH  083%=      5-min Rain = 0
KDVS 191145Z 02002KT 16/13 A2993 RMK A01 T01580127  RH  085%=      5-min Rain = 0
KDVS 191150Z 35003KT 16/13 A2993 RMK A01 T01560127  RH  086%=      5-min Rain = 0
KDVS 191155Z 32002KT 16/13 A2993 RMK A01 T01550128  RH  087%=      5-min Rain = 0
KDVS 191200Z 34005KT 16/13 A2993 RMK A01 T01560130  RH  088%=      5-min Rain = 0
KDVS 191205Z 34005KT 16/13 A2993 RMK A01 T01550130  RH  089%=      5-min Rain = 0
KDVS 191210Z 32004KT 16/13 A2993 RMK A01 T01560131  RH  088%=      5-min Rain = 0
KDVS 191215Z 34006KT 16/13 A2994 RMK A01 T01560131  RH  089%=      5-min Rain = 0
KDVS 191220Z 32003KT 16/13 A2994 RMK A01 T01570131  RH  088%=      5-min Rain = 0
KDVS 191225Z 32002KT 16/13 A2994 RMK A01 T01600132  RH  087%=      5-min Rain = 0
KDVS 191230Z 30002KT 16/13 A2993 RMK A01 T01620133  RH  086%=      5-min Rain = 0
KDVS 191235Z 30003KT 16/13 A2993 RMK A01 T01640132  RH  085%=      5-min Rain = 0
KDVS 191240Z 32004KT 17/13 A2994 RMK A01 T01670133  RH  084%=      5-min Rain = 0
KDVS 191245Z 31004KT 17/13 A2994 RMK A01 T01690132  RH  082%=      5-min Rain = 0
KDVS 191250Z 32003KT 17/13 A2994 RMK A01 T01720133  RH  081%=      5-min Rain = 0
KDVS 191255Z 33002KT 18/13 A2994 RMK A01 T01760132  RH  078%=      5-min Rain = 0
KDVS 191300Z 32002KT 18/13 A2994 RMK A01 T01790128  RH  075%=      5-min Rain = 0
KDVS 191305Z 31002KT 18/13 A2994 RMK A01 T01820127  RH  073%=      5-min Rain = 0
KDVS 191310Z 30003KT 19/13 A2994 RMK A01 T01850128  RH  072%=      5-min Rain = 0
KDVS 191315Z 31004KT 19/13 A2994 RMK A01 T01870126  RH  071%=      5-min Rain = 0
KDVS 191320Z 31003KT 19/13 A2994 RMK A01 T01870127  RH  071%=      5-min Rain = 0
KDVS 191325Z 32004KT 19/13 A2995 RMK A01 T01890129  RH  071%=      5-min Rain = 0
KDVS 191330Z 31003KT 19/13 A2994 RMK A01 T01910128  RH  069%=      5-min Rain = 0
KDVS 191335Z 32004KT 19/13 A2995 RMK A01 T01920128  RH  069%=      5-min Rain = 0
KDVS 191340Z 32003KT 19/13 A2995 RMK A01 T01940129  RH  069%=      5-min Rain = 0
KDVS 191345Z 30004KT 20/13 A2994 RMK A01 T01970129  RH  067%=      5-min Rain = 0
KDVS 191350Z 29004KT 20/13 A2994 RMK A01 T02000129  RH  066%=      5-min Rain = 0
KDVS 191355Z 29004KT 20/13 A2994 RMK A01 T02030129  RH  065%=      5-min Rain = 0
KDVS 191400Z 30004KT 20/13 A2994 RMK A01 T02040131  RH  065%=      5-min Rain = 0
KDVS 191405Z 30004KT 21/13 A2994 RMK A01 T02070130  RH  064%=      5-min Rain = 0
KDVS 191410Z 29004KT 21/13 A2994 RMK A01 T02090132  RH  064%=      5-min Rain = 0
KDVS 191415Z 28004KT 21/13 A2994 RMK A01 T02120133  RH  063%=      5-min Rain = 0
KDVS 191420Z 27004KT 21/13 A2994 RMK A01 T02140133  RH  062%=      5-min Rain = 0
KDVS 191425Z 26004KT 22/14 A2994 RMK A01 T02170136  RH  063%=      5-min Rain = 0
KDVS 191430Z 26004KT 22/14 A2994 RMK A01 T02190135  RH  061%=      5-min Rain = 0
KDVS 191435Z 27003KT 22/14 A2993 RMK A01 T02230136  RH  060%=      5-min Rain = 0
KDVS 191440Z 28002KT 23/14 A2993 RMK A01 T02280136  RH  059%=      5-min Rain = 0
KDVS 191445Z 29003KT 23/13 A2993 RMK A01 T02310133  RH  056%=      5-min Rain = 0
KDVS 191450Z 27003KT 23/13 A2993 RMK A01 T02320133  RH  056%=      5-min Rain = 0
KDVS 191455Z 28003KT 24/14 A2993 RMK A01 T02350137  RH  056%=      5-min Rain = 0
KDVS 191500Z 28004KT 24/14 A2993 RMK A01 T02380138  RH  056%=      5-min Rain = 0
KDVS 191505Z 29004KT 24/14 A2993 RMK A01 T02410138  RH  055%=      5-min Rain = 0
KDVS 191510Z 27003KT 25/14 A2993 RMK A01 T02450137  RH  053%=      5-min Rain = 0
KDVS 191515Z 28004KT 25/14 A2993 RMK A01 T02480139  RH  053%=      5-min Rain = 0
KDVS 191520Z 28005KT 25/14 A2993 RMK A01 T02510138  RH  052%=      5-min Rain = 0
KDVS 191525Z 26004KT 25/14 A2993 RMK A01 T02540140  RH  051%=      5-min Rain = 0
KDVS 191530Z 28006KT 26/14 A2993 RMK A01 T02570140  RH  051%=      5-min Rain = 0
KDVS 191535Z 28005KT 26/14 A2993 RMK A01 T02610139  RH  049%=      5-min Rain = 0
KDVS 191540Z 27006KT 26/14 A2993 RMK A01 T02630142  RH  049%=      5-min Rain = 0
KDVS 191545Z 29006KT 27/14 A2993 RMK A01 T02660141  RH  048%=      5-min Rain = 0
KDVS 191550Z 27007KT 27/14 A2993 RMK A01 T02700143  RH  048%=      5-min Rain = 0
KDVS 191555Z 26006G11KT 27/14 A2993 RMK A01 T02710143  RH  047%=      5-min Rain = 0
KDVS 191600Z 27008KT 27/14 A2993 RMK A01 T02740140  RH  046%=      5-min Rain = 0
KDVS 191605Z 26008G14KT 28/14 A2993 RMK A01 T02760138  RH  045%=      5-min Rain = 0
KDVS 191610Z 28007KT 28/14 A2993 RMK A01 T02780141  RH  045%=      5-min Rain = 0
KDVS 191615Z 27007KT 28/14 A2993 RMK A01 T02800138  RH  044%=      5-min Rain = 0
KDVS 191620Z 27007KT 28/14 A2993 RMK A01 T02830141  RH  044%=      5-min Rain = 0
KDVS 191625Z 29009KT 29/13 A2993 RMK A01 T02860133  RH  041%=      5-min Rain = 0
KDVS 191630Z 29008KT 29/13 A2993 RMK A01 T02890131  RH  040%=      5-min Rain = 0
KDVS 191635Z 30008KT 29/13 A2993 RMK A01 T02920133  RH  039%=      5-min Rain = 0
KDVS 191640Z 30009KT 29/13 A2993 RMK A01 T02940127  RH  037%=      5-min Rain = 0
KDVS 191645Z 29008KT 30/13 A2993 RMK A01 T02970125  RH  036%=      5-min Rain = 0
KDVS 191650Z 30008G14KT 30/11 A2993 RMK A01 T02980114  RH  033%=      5-min Rain = 0
KDVS 191655Z 29009KT 30/12 A2993 RMK A01 T03010115  RH  033%=      5-min Rain = 0
KDVS 191700Z 30009KT 30/11 A2993 RMK A01 T03030106  RH  031%=      5-min Rain = 0
KDVS 191705Z 30008KT 31/11 A2993 RMK A01 T03060106  RH  030%=      5-min Rain = 0
KDVS 191710Z 29009KT 31/10 A2993 RMK A01 T03090095  RH  027%=      5-min Rain = 0
KDVS 191715Z 29009KT 31/09 A2993 RMK A01 T03120087  RH  026%=      5-min Rain = 0
KDVS 191720Z 30011G16KT 32/07 A2993 RMK A01 T03150070  RH  022%=      5-min Rain = 0
KDVS 191725Z 30011KT 32/06 A2993 RMK A01 T03160064  RH  021%=      5-min Rain = 0
KDVS 191730Z 29013KT 32/06 A2993 RMK A01 T03190059  RH  020%=      5-min Rain = 0
KDVS 191735Z 30011G16KT 32/05 A2993 RMK A01 T03200053  RH  019%=      5-min Rain = 0
KDVS 191740Z 30012G18KT 32/05 A2993 RMK A01 T03210049  RH  019%=      5-min Rain = 0
KDVS 191745Z 30012G17KT 32/05 A2993 RMK A01 T03230045  RH  018%=      5-min Rain = 0
KDVS 191750Z 30012G17KT 32/05 A2993 RMK A01 T03230051  RH  019%=      5-min Rain = 0
KDVS 191755Z 30012G18KT 32/05 A2993 RMK A01 T03240048  RH  018%=      5-min Rain = 0
KDVS 191800Z 30011G16KT 33/04 A2993 RMK A01 T03250044  RH  017%=      5-min Rain = 0
KDVS 191805Z 31012KT 33/03 A2993 RMK A01 T03260033  RH  016%=      5-min Rain = 0
KDVS 191810Z 31014G19KT 32/03 A2993 RMK A01 T03240031  RH  016%=      5-min Rain = 0
KDVS 191815Z 30014G19KT 32/03 A2992 RMK A01 T03240031  RH  016%=      5-min Rain = 0
KDVS 191820Z 31015G20KT 33/04 A2992 RMK A01 T03260035  RH  016%=      5-min Rain = 0
KDVS 191825Z 30015KT 33/02 A2992 RMK A01 T03250018  RH  014%=      5-min Rain = 0
KDVS 191830Z 30014G19KT 33/02 A2992 RMK A01 T03270018  RH  014%=      5-min Rain = 0
KDVS 191835Z 30014G20KT 33/01 A2992 RMK A01 T03270014  RH  014%=      5-min Rain = 0
KDVS 191840Z 31016G21KT 33/02 A2992 RMK A01 T03270015  RH  014%=      5-min Rain = 0
KDVS 191845Z 31014G21KT 33/02 A2992 RMK A01 T03270018  RH  014%=      5-min Rain = 0
KDVS 191850Z 30015G22KT 33/02 A2992 RMK A01 T03300021  RH  014%=      5-min Rain = 0
KDVS 191855Z 30015G21KT 33/01 A2992 RMK A01 T03290012  RH  014%=      5-min Rain = 0
KDVS 191900Z 30015G20KT 33/02 A2992 RMK A01 T03290015  RH  014%=      5-min Rain = 0
KDVS 191905Z 31015G20KT 33/01 A2991 RMK A01 T03300013  RH  014%=      5-min Rain = 0
KDVS 191910Z 30015G20KT 33/01 A2991 RMK A01 T03300012  RH  013%=      5-min Rain = 0
KDVS 191915Z 30015G20KT 33/02 A2991 RMK A01 T03310018  RH  014%=      5-min Rain = 0
KDVS 191920Z 31013G19KT 33/02 A2991 RMK A01 T03320021  RH  014%=      5-min Rain = 0
KDVS 191925Z 30015G21KT 33/02 A299 RMK A01 T03320015  RH  014%=      5-min Rain = 0
KDVS 191930Z 32014G20KT 33/02 A299 RMK A01 T03320023  RH  014%=      5-min Rain = 0
KDVS 191935Z 30015G24KT 33/03 A299 RMK A01 T03340027  RH  015%=      5-min Rain = 0
KDVS 191940Z 31014G19KT 33/02 A299 RMK A01 T03330019  RH  014%=      5-min Rain = 0
KDVS 191945Z 31016G24KT 33/02 A299 RMK A01 T03330020  RH  014%=      5-min Rain = 0
KDVS 191950Z 31014G22KT 33/02 A299 RMK A01 T03340017  RH  014%=      5-min Rain = 0
KDVS 191955Z 31013G19KT 34/02 A299 RMK A01 T03350022  RH  014%=      5-min Rain = 0
KDVS 192000Z 31013G21KT 34/02 A299 RMK A01 T03380024  RH  014%=      5-min Rain = 0
KDVS 192005Z 31014G21KT 34/03 A299 RMK A01 T03380025  RH  014%=      5-min Rain = 0
KDVS 192010Z 31014G21KT 34/02 A299 RMK A01 T03370020  RH  014%=      5-min Rain = 0
KDVS 192015Z 29011G21KT 34/02 A2989 RMK A01 T03360023  RH  014%=      5-min Rain = 0
KDVS 192020Z 28012G19KT 34/02 A2989 RMK A01 T03380019  RH  014%=      5-min Rain = 0
KDVS 192025Z 30012G18KT 34/03 A2989 RMK A01 T03390026  RH  014%=      5-min Rain = 0
KDVS 192030Z 30008G15KT 34/02 A2989 RMK A01 T03410022  RH  014%=      5-min Rain = 0
KDVS 192035Z 28013G21KT 34/02 A2989 RMK A01 T03430017  RH  013%=      5-min Rain = 0
KDVS 192040Z 29010G15KT 34/02 A2989 RMK A01 T03410021  RH  013%=      5-min Rain = 0
KDVS 192045Z 27009G16KT 34/02 A2988 RMK A01 T03430018  RH  013%=      5-min Rain = 0
KDVS 192050Z 28016G22KT 35/01 A2988 RMK A01 T03450007  RH  012%=      5-min Rain = 0
KDVS 192055Z 29016G23KT 35/00 A2988 RMK A01 T03470004  RH  011%=      5-min Rain = 0
KDVS 192100Z 28020G25KT 35/00 A2988 RMK A01 T034600-0  RH  011%=      5-min Rain = 0
KDVS 192105Z 29015G21KT 35/00 A2988 RMK A01 T034500-0  RH  011%=      5-min Rain = 0
KDVS 192110Z 29015G21KT 35/00 A2987 RMK A01 T03460003  RH  012%=      5-min Rain = 0
KDVS 192115Z 29016G21KT 34/00 A2987 RMK A01 T03440004  RH  012%=      5-min Rain = 0
KDVS 192120Z 29012G19KT 34/M00 A2987 RMK A01 T03441001  RH  011%=      5-min Rain = 0
KDVS 192125Z 28011G19KT 35/00 A2987 RMK A01 T034500-0  RH  011%=      5-min Rain = 0
KDVS 192130Z 26014G20KT 35/00 A2987 RMK A01 T03500001  RH  011%=      5-min Rain = 0
KDVS 192135Z 26016G21KT 35/M00 A2986 RMK A01 T03501003  RH  011%=      5-min Rain = 0
KDVS 192140Z 26015KT 35/00 A2986 RMK A01 T035000-0  RH  011%=      5-min Rain = 0
KDVS 192145Z 28014G21KT 35/00 A2986 RMK A01 T03520001  RH  011%=      5-min Rain = 0
KDVS 192150Z 31015G20KT 35/01 A2986 RMK A01 T03510011  RH  012%=      5-min Rain = 0
KDVS 192155Z 32011KT 34/02 A2986 RMK A01 T03430016  RH  013%=      5-min Rain = 0
KDVS 192200Z 34009G15KT 34/01 A2986 RMK A01 T03390008  RH  012%=      5-min Rain = 0
KDVS 192205Z 32008KT 34/02 A2986 RMK A01 T03430015  RH  013%=      5-min Rain = 0
KDVS 192210Z 31002G7KT 34/01 A2986 RMK A01 T03430008  RH  012%=      5-min Rain = 0
KDVS 192215Z 28006G13KT 35/01 A2985 RMK A01 T03460014  RH  013%=      5-min Rain = 0
KDVS 192220Z 29008G13KT 35/02 A2985 RMK A01 T03490015  RH  012%=      5-min Rain = 0
KDVS 192225Z 29011G19KT 35/01 A2985 RMK A01 T03490008  RH  012%=      5-min Rain = 0
KDVS 192230Z 31010G17KT 34/01 A2985 RMK A01 T03400013  RH  013%=      5-min Rain = 0
KDVS 192235Z 31009KT 34/02 A2985 RMK A01 T03410018  RH  013%=      5-min Rain = 0
KDVS 192240Z 33009G14KT 34/02 A2985 RMK A01 T03390017  RH  013%=      5-min Rain = 0
KDVS 192245Z 34008KT 34/02 A2985 RMK A01 T03380020  RH  014%=      5-min Rain = 0
KDVS 192250Z 32006KT 35/03 A2984 RMK A01 T03450029  RH  014%=      5-min Rain = 0
KDVS 192255Z 30006G11KT 35/03 A2985 RMK A01 T03480027  RH  014%=      5-min Rain = 0
KDVS 192300Z 31005G10KT 35/01 A2984 RMK A01 T03470013  RH  012%=      5-min Rain = 0
KDVS 192305Z 32007G13KT 35/02 A2984 RMK A01 T03490024  RH  013%=      5-min Rain = 0
KDVS 192310Z 29008KT 35/02 A2984 RMK A01 T03510015  RH  012%=      5-min Rain = 0
KDVS 192315Z 28013G19KT 35/M00 A2984 RMK A01 T03511001  RH  011%=      5-min Rain = 0
KDVS 192320Z 28012G18KT 35/M01 A2984 RMK A01 T03461011  RH  010%=      5-min Rain = 0
KDVS 192325Z 26013KT 34/M01 A2984 RMK A01 T03401008  RH  011%=      5-min Rain = 0
KDVS 192330Z 27009KT 34/M00 A2984 RMK A01 T03381002  RH  012%=      5-min Rain = 0
KDVS 192335Z 24009G14KT 35/00 A2984 RMK A01 T03450003  RH  012%=      5-min Rain = 0
KDVS 192340Z 24009KT 35/00 A2983 RMK A01 T03480001  RH  011%=      5-min Rain = 0
KDVS 192345Z 26012G18KT 35/M00 A2983 RMK A01 T03501003  RH  011%=      5-min Rain = 0
KDVS 192350Z 26015G20KT 35/M01 A2983 RMK A01 T03481012  RH  010%=      5-min Rain = 0
KDVS 192355Z 27011KT 34/M01 A2983 RMK A01 T03401013  RH  011%=      5-min Rain = 0
KDVS 200000Z 27011KT 34/M01 A2983 RMK A01 T03351011  RH  011%=      5-min Rain = 0
KDVS 200005Z 27013G21KT 34/M01 A2983 RMK A01 T03421012  RH  011%=      5-min Rain = 0
KDVS 200010Z 26009G14KT 35/M01 A2983 RMK A01 T03451006  RH  011%=      5-min Rain = 0
KDVS 200015Z 25012KT 35/M01 A2983 RMK A01 T03461012  RH  010%=      5-min Rain = 0
KDVS 200020Z 25012G17KT 35/M01 A2983 RMK A01 T03451011  RH  010%=      5-min Rain = 0
KDVS 200025Z 24011KT 34/M01 A2983 RMK A01 T03391009  RH  011%=      5-min Rain = 0
KDVS 200030Z 25010KT 34/M01 A2983 RMK A01 T03361009  RH  011%=      5-min Rain = 0
KDVS 200035Z 24008KT 34/M00 A2983 RMK A01 T03391003  RH  011%=      5-min Rain = 0
KDVS 200040Z 23007KT 34/00 A2983 RMK A01 T03390000  RH  012%=      5-min Rain = 0
KDVS 200045Z 23008KT 34/00 A2983 RMK A01 T03370003  RH  012%=      5-min Rain = 0
KDVS 200050Z 24009KT 34/M00 A2983 RMK A01 T03361002  RH  012%=      5-min Rain = 0
KDVS 200055Z 24008KT 33/00 A2982 RMK A01 T033100-0  RH  012%=      5-min Rain = 0
KDVS 200100Z 23006KT 33/01 A2983 RMK A01 T03290013  RH  014%=      5-min Rain = 0
KDVS 200105Z 23008KT 33/01 A2982 RMK A01 T03280014  RH  014%=      5-min Rain = 0
KDVS 200110Z 23008KT 33/01 A2982 RMK A01 T03270012  RH  014%=      5-min Rain = 0
KDVS 200115Z 23007KT 32/02 A2982 RMK A01 T03230024  RH  015%=      5-min Rain = 0
KDVS 200120Z 23005KT 32/04 A2982 RMK A01 T03180035  RH  017%=      5-min Rain = 0
KDVS 200125Z 23006KT 31/04 A2982 RMK A01 T03140043  RH  018%=      5-min Rain = 0
KDVS 200130Z 23005KT 31/05 A2983 RMK A01 T03110046  RH  019%=      5-min Rain = 0
KDVS 200135Z 22006KT 31/05 A2983 RMK A01 T03080045  RH  019%=      5-min Rain = 0
KDVS 200140Z 23006KT 30/05 A2983 RMK A01 T03040052  RH  021%=      5-min Rain = 0
KDVS 200145Z 23006KT 30/06 A2983 RMK A01 T02990057  RH  022%=      5-min Rain = 0
KDVS 200150Z 23005KT 30/06 A2983 RMK A01 T02950063  RH  024%=      5-min Rain = 0
KDVS 200155Z 22005KT 29/07 A2983 RMK A01 T02900067  RH  025%=      5-min Rain = 0
KDVS 200200Z 23005KT 29/07 A2983 RMK A01 T02870071  RH  026%=      5-min Rain = 0
KDVS 200205Z 22005KT 28/08 A2983 RMK A01 T02830075  RH  028%=      5-min Rain = 0
KDVS 200210Z 23005KT 28/08 A2983 RMK A01 T02790084  RH  030%=      5-min Rain = 0
KDVS 200215Z 23005KT 28/09 A2983 RMK A01 T02750088  RH  032%=      5-min Rain = 0
KDVS 200220Z 22006KT 27/09 A2983 RMK A01 T02700094  RH  034%=      5-min Rain = 0
KDVS 200225Z 22005KT 27/10 A2983 RMK A01 T02650101  RH  037%=      5-min Rain = 0
KDVS 200230Z 22005KT 26/10 A2984 RMK A01 T02620101  RH  037%=      5-min Rain = 0
KDVS 200235Z 22005KT 26/10 A2984 RMK A01 T02610104  RH  039%=      5-min Rain = 0
KDVS 200240Z 23004KT 26/10 A2984 RMK A01 T02600104  RH  039%=      5-min Rain = 0
KDVS 200245Z 30004KT 25/12 A2984 RMK A01 T02500115  RH  044%=      5-min Rain = 0
KDVS 200250Z 27004KT 24/11 A2984 RMK A01 T02430109  RH  044%=      5-min Rain = 0
KDVS 200255Z 26003KT 24/11 A2984 RMK A01 T02420106  RH  044%=      5-min Rain = 0
KDVS 200300Z 25004KT 25/10 A2984 RMK A01 T02450101  RH  042%=      5-min Rain = 0
KDVS 200305Z 23005KT 24/11 A2985 RMK A01 T02440107  RH  044%=      5-min Rain = 0
KDVS 200310Z 24005KT 24/11 A2985 RMK A01 T02430105  RH  043%=      5-min Rain = 0
KDVS 200315Z 24005KT 25/09 A2985 RMK A01 T02480090  RH  038%=      5-min Rain = 0
KDVS 200320Z 24006KT 25/09 A2985 RMK A01 T02500090  RH  037%=      5-min Rain = 0
KDVS 200325Z 25007KT 25/10 A2985 RMK A01 T02450096  RH  040%=      5-min Rain = 0
KDVS 200330Z 24008KT 25/08 A2985 RMK A01 T02450082  RH  036%=      5-min Rain = 0
KDVS 200335Z 24008KT 25/07 A2985 RMK A01 T02500072  RH  033%=      5-min Rain = 0
KDVS 200340Z 24007KT 25/08 A2986 RMK A01 T02510075  RH  033%=      5-min Rain = 0
KDVS 200345Z 25006KT 25/08 A2986 RMK A01 T02460082  RH  036%=      5-min Rain = 0
KDVS 200350Z 24006KT 24/08 A2986 RMK A01 T02440076  RH  035%=      5-min Rain = 0
KDVS 200355Z 23005KT 24/09 A2986 RMK A01 T02420088  RH  039%=      5-min Rain = 0
KDVS 200400Z 23006KT 24/08 A2986 RMK A01 T02430076  RH  035%=      5-min Rain = 0
KDVS 200405Z 23006KT 25/08 A2986 RMK A01 T02450078  RH  035%=      5-min Rain = 0
KDVS 200410Z 23007KT 24/08 A2986 RMK A01 T02410083  RH  037%=      5-min Rain = 0
KDVS 200415Z 22007KT 24/09 A2986 RMK A01 T02370088  RH  040%=      5-min Rain = 0
KDVS 200420Z 23007KT 23/09 A2986 RMK A01 T02340093  RH  042%=      5-min Rain = 0
KDVS 200425Z 23007KT 23/10 A2987 RMK A01 T02310095  RH  043%=      5-min Rain = 0
KDVS 200430Z 23008KT 23/09 A2987 RMK A01 T02300085  RH  041%=      5-min Rain = 0
KDVS 200435Z 24007KT 23/08 A2987 RMK A01 T02290083  RH  040%=      5-min Rain = 0
KDVS 200440Z 24007KT 23/08 A2987 RMK A01 T02270081  RH  040%=      5-min Rain = 0
KDVS 200445Z 24008KT 23/07 A2987 RMK A01 T02290068  RH  036%=      5-min Rain = 0
KDVS 200450Z 24011KT 24/04 A2986 RMK A01 T02430040  RH  027%=      5-min Rain = 0
KDVS 200455Z 24010KT 25/04 A2986 RMK A01 T02510035  RH  025%=      5-min Rain = 0

Page generated in 0.0094 seconds.